createdAt,value
2019-03-10T00:01:36.858Z,12.36
2019-03-10T00:04:08.195Z,12.34
2019-03-10T00:06:39.663Z,12.37
2019-03-10T00:09:11.193Z,12.43
2019-03-10T00:11:42.525Z,12.39
2019-03-10T00:14:14.663Z,12.48
2019-03-10T00:16:46.082Z,12.36
2019-03-10T00:19:17.453Z,12.38
2019-03-10T00:21:48.732Z,12.22
2019-03-10T00:24:20.300Z,12.28
2019-03-10T00:26:51.563Z,12.29
2019-03-10T00:29:22.905Z,12.42
2019-03-10T00:31:54.324Z,12.33
2019-03-10T00:34:25.765Z,12.27
2019-03-10T00:36:58.772Z,12.25
2019-03-10T00:40:12.659Z,12.27
2019-03-10T00:43:25.846Z,12.33
2019-03-10T00:46:40.638Z,12.31
2019-03-10T00:50:02.900Z,12.42
2019-03-10T00:52:41.790Z,12.23
2019-03-10T00:55:13.128Z,12.42
2019-03-10T00:57:44.550Z,12.48
2019-03-10T01:00:17.721Z,12.49
2019-03-10T01:02:49.106Z,12.49
2019-03-10T01:05:20.555Z,12.56
2019-03-10T01:07:51.946Z,12.61
2019-03-10T01:10:23.211Z,12.62
2019-03-10T01:12:57.728Z,12.65
2019-03-10T01:15:29.401Z,12.65
2019-03-10T01:18:01.847Z,12.57
2019-03-10T01:20:33.220Z,12.50
2019-03-10T01:23:04.631Z,12.36
2019-03-10T01:25:36.214Z,12.43
2019-03-10T01:28:07.686Z,12.47
2019-03-10T01:30:46.770Z,12.42
2019-03-10T01:33:45.905Z,12.29
2019-03-10T01:36:15.658Z,12.26
2019-03-10T01:38:47.020Z,12.22
2019-03-10T01:41:18.306Z,12.30
2019-03-10T01:43:49.540Z,12.23
2019-03-10T01:46:20.790Z,12.22
2019-03-10T01:48:52.303Z,12.15
2019-03-10T01:51:23.770Z,12.00
2019-03-10T01:53:55.261Z,11.90
2019-03-10T01:56:26.910Z,11.94
2019-03-10T01:58:58.296Z,11.77
2019-03-10T02:01:29.669Z,11.77
2019-03-10T02:04:00.996Z,11.83
2019-03-10T02:06:32.264Z,11.93
2019-03-10T02:09:05.347Z,11.80
2019-03-10T02:11:36.692Z,11.79
2019-03-10T02:14:08.034Z,11.84
2019-03-10T02:16:39.313Z,11.67
2019-03-10T02:19:10.638Z,11.59
2019-03-10T02:21:42.050Z,11.61
2019-03-10T02:24:23.213Z,11.60
2019-03-10T02:26:46.379Z,11.48
2019-03-10T02:29:17.783Z,11.43
2019-03-10T02:31:49.035Z,11.41
2019-03-10T02:34:21.945Z,11.42
2019-03-10T02:36:53.345Z,11.41
2019-03-10T02:39:24.607Z,11.30
2019-03-10T02:41:55.909Z,11.14
2019-03-10T02:44:27.158Z,11.15
2019-03-10T02:46:58.434Z,11.07
2019-03-10T02:49:29.925Z,11.07
2019-03-10T02:52:01.199Z,10.95
2019-03-10T02:54:32.561Z,10.99
2019-03-10T02:57:03.844Z,11.02
2019-03-10T02:59:35.197Z,10.93
2019-03-10T03:02:06.507Z,10.90
2019-03-10T03:04:37.958Z,10.90
2019-03-10T03:07:09.426Z,11.06
2019-03-10T03:09:40.775Z,11.04
2019-03-10T03:12:12.049Z,11.09
2019-03-10T03:14:43.515Z,10.99
2019-03-10T03:17:14.833Z,10.99
2019-03-10T03:19:46.107Z,10.90
2019-03-10T03:22:17.434Z,11.04
2019-03-10T03:24:49.694Z,10.97
2019-03-10T03:27:20.941Z,10.97
2019-03-10T03:29:52.648Z,10.84
2019-03-10T03:32:24.088Z,10.96
2019-03-10T03:34:55.517Z,10.79
2019-03-10T03:37:26.846Z,10.90
2019-03-10T03:39:59.335Z,10.73
2019-03-10T03:42:30.647Z,10.72
2019-03-10T03:45:02.122Z,10.83
2019-03-10T03:47:33.508Z,10.70
2019-03-10T03:50:05.255Z,10.56
2019-03-10T03:52:38.356Z,10.44
2019-03-10T03:55:09.854Z,10.35
2019-03-10T03:57:41.822Z,10.27
2019-03-10T04:00:13.393Z,10.25
2019-03-10T04:02:44.815Z,10.13
2019-03-10T04:05:16.252Z,10.13
2019-03-10T04:07:47.539Z,10.05
2019-03-10T04:10:18.966Z,9.98
2019-03-10T04:12:50.239Z,9.94
2019-03-10T04:15:21.556Z,9.96
2019-03-10T04:17:52.972Z,9.93
2019-03-10T04:20:25.993Z,9.87
2019-03-10T04:22:57.389Z,9.84
2019-03-10T04:25:28.689Z,9.79
2019-03-10T04:28:00.165Z,9.80
2019-03-10T04:30:31.451Z,9.77
2019-03-10T04:33:02.710Z,9.75
2019-03-10T04:35:34.118Z,9.70
2019-03-10T04:38:05.540Z,9.58
2019-03-10T04:40:36.955Z,9.58
2019-03-10T04:43:08.312Z,9.55
2019-03-10T04:45:39.717Z,9.52
2019-03-10T04:48:11.063Z,9.50
2019-03-10T04:50:42.618Z,9.46
2019-03-10T04:53:13.926Z,9.45
2019-03-10T04:55:50.050Z,9.41
2019-03-10T04:58:21.481Z,9.39
2019-03-10T05:00:54.516Z,9.41
2019-03-10T05:03:25.750Z,9.48
2019-03-10T05:05:57.400Z,9.54
2019-03-10T05:08:30.508Z,9.59
2019-03-10T05:11:01.871Z,9.60
2019-03-10T05:13:33.148Z,9.61
2019-03-10T05:16:04.500Z,9.62
2019-03-10T05:18:35.835Z,9.63
2019-03-10T05:21:07.338Z,9.63
2019-03-10T05:23:40.576Z,9.55
2019-03-10T05:26:12.136Z,9.57
2019-03-10T05:28:45.437Z,9.57
2019-03-10T05:31:17.023Z,9.66
2019-03-10T05:33:48.418Z,9.81
2019-03-10T05:36:19.805Z,9.86
2019-03-10T05:38:51.047Z,9.89
2019-03-10T05:41:22.526Z,9.97
2019-03-10T05:43:55.638Z,10.04
2019-03-10T05:46:26.958Z,10.08
2019-03-10T05:48:58.230Z,10.16
2019-03-10T05:51:29.738Z,10.21
2019-03-10T05:54:01.094Z,10.27
2019-03-10T05:56:32.552Z,10.28
2019-03-10T05:59:04.050Z,10.32
2019-03-10T06:01:35.473Z,10.35
2019-03-10T06:04:06.865Z,10.40
2019-03-10T06:06:38.526Z,10.47
2019-03-10T06:09:09.902Z,10.55
2019-03-10T06:11:42.959Z,10.61
2019-03-10T06:14:14.218Z,10.63
2019-03-10T06:16:45.643Z,10.71
2019-03-10T06:19:16.937Z,10.72
2019-03-10T06:21:48.228Z,10.80
2019-03-10T06:24:19.503Z,10.80
2019-03-10T06:26:50.793Z,10.67
2019-03-10T06:29:22.094Z,10.69
2019-03-10T06:31:53.615Z,10.72
2019-03-10T06:34:26.524Z,10.72
2019-03-10T06:36:58.003Z,10.84
2019-03-10T06:39:29.269Z,10.87
2019-03-10T06:42:00.568Z,10.97
2019-03-10T06:44:31.847Z,10.97
2019-03-10T06:47:03.226Z,11.12
2019-03-10T06:49:34.720Z,11.31
2019-03-10T06:52:06.031Z,11.30
2019-03-10T06:54:37.366Z,11.36
2019-03-10T06:57:08.732Z,11.43
2019-03-10T06:59:40.320Z,11.57
2019-03-10T07:02:11.901Z,11.49
2019-03-10T07:04:43.255Z,11.47
2019-03-10T07:07:14.690Z,11.48
2019-03-10T07:09:46.124Z,11.49
2019-03-10T07:12:17.476Z,11.48
2019-03-10T07:14:48.885Z,11.45
2019-03-10T07:17:20.285Z,11.47
2019-03-10T07:19:51.764Z,11.55
2019-03-10T07:22:23.071Z,11.71
2019-03-10T07:24:54.448Z,11.77
2019-03-10T07:27:29.175Z,11.81
2019-03-10T07:30:04.661Z,11.70
2019-03-10T07:32:44.454Z,11.70
2019-03-10T07:35:33.457Z,11.73
2019-03-10T07:38:12.210Z,11.78
2019-03-10T07:41:02.441Z,11.87
2019-03-10T07:43:52.924Z,11.90
2019-03-10T07:46:39.357Z,11.99
2019-03-10T07:49:32.849Z,12.01
2019-03-10T07:52:20.115Z,12.09
2019-03-10T07:55:08.183Z,12.09
2019-03-10T07:57:57.275Z,12.00
2019-03-10T08:00:46.675Z,12.00
2019-03-10T08:03:39.361Z,11.82
2019-03-10T08:06:32.857Z,11.60
2019-03-10T08:09:21.838Z,11.39
2019-03-10T08:12:15.444Z,11.29
2019-03-10T08:15:01.289Z,11.12
2019-03-10T08:17:42.695Z,10.90
2019-03-10T08:20:32.995Z,10.71
2019-03-10T08:23:29.368Z,10.58
2019-03-10T08:26:12.118Z,10.64
2019-03-10T08:28:54.244Z,10.46
2019-03-10T08:31:50.768Z,10.30
2019-03-10T08:34:41.092Z,10.07
2019-03-10T08:37:22.258Z,10.07
2019-03-10T08:40:00.342Z,9.94
2019-03-10T08:42:46.751Z,9.88
2019-03-10T08:45:37.151Z,9.74
2019-03-10T08:48:36.567Z,9.75
2019-03-10T08:51:21.850Z,9.78
2019-03-10T08:54:04.022Z,9.75
2019-03-10T08:57:00.578Z,9.70
2019-03-10T08:59:38.185Z,9.68
2019-03-10T09:02:30.152Z,9.71
2019-03-10T09:05:12.927Z,9.62
2019-03-10T09:08:14.198Z,9.58
2019-03-10T09:11:00.264Z,9.58
2019-03-10T09:13:56.910Z,9.59
2019-03-10T09:16:50.252Z,9.57
2019-03-10T09:19:40.543Z,9.59
2019-03-10T09:22:25.424Z,9.62
2019-03-10T09:25:10.920Z,9.67
2019-03-10T09:28:00.710Z,9.70
2019-03-10T09:30:51.054Z,9.71
2019-03-10T09:33:46.151Z,9.77
2019-03-10T09:36:39.272Z,9.77
2019-03-10T09:39:28.181Z,9.74
2019-03-10T09:42:19.025Z,9.71
2019-03-10T09:44:59.367Z,9.74
2019-03-10T09:47:46.851Z,9.74
2019-03-10T09:50:39.938Z,9.76
2019-03-10T09:53:45.730Z,9.73
2019-03-10T09:56:27.004Z,9.75
2019-03-10T09:59:15.907Z,9.75
2019-03-10T10:01:53.659Z,9.72
2019-03-10T10:04:34.269Z,9.74
2019-03-10T10:07:12.734Z,9.70
2019-03-10T10:10:15.552Z,9.67
2019-03-10T10:13:08.690Z,9.66
2019-03-10T10:15:54.369Z,9.68
2019-03-10T10:18:50.856Z,9.68
2019-03-10T10:21:36.050Z,9.67
2019-03-10T10:24:16.464Z,9.66
2019-03-10T10:27:33.443Z,9.70
2019-03-10T10:30:31.035Z,9.75
2019-03-10T10:33:24.162Z,9.73
2019-03-10T10:36:26.692Z,9.78
2019-03-10T10:39:34.540Z,9.82
2019-03-10T10:42:43.449Z,9.82
2019-03-10T10:45:37.407Z,9.84
2019-03-10T10:48:33.565Z,9.88
2019-03-10T10:51:18.980Z,9.87
2019-03-10T10:54:27.734Z,9.90
2019-03-10T10:57:28.241Z,9.88
2019-03-10T11:00:05.731Z,9.93
2019-03-10T11:03:08.163Z,9.97
2019-03-10T11:05:51.013Z,9.97
2019-03-10T11:08:30.869Z,9.95
2019-03-10T11:11:33.108Z,9.94
2019-03-10T11:14:26.320Z,9.95
2019-03-10T11:17:15.810Z,9.91
2019-03-10T11:20:15.719Z,9.91
2019-03-10T11:23:11.771Z,9.91
2019-03-10T11:26:03.755Z,9.89
2019-03-10T11:28:52.933Z,9.89
2019-03-10T11:31:37.134Z,9.79
2019-03-10T11:34:27.469Z,9.71
2019-03-10T11:37:19.748Z,9.72
2019-03-10T11:40:16.165Z,9.74
2019-03-10T11:42:55.678Z,9.80
2019-03-10T11:45:37.521Z,9.75
2019-03-10T11:48:34.259Z,9.74
2019-03-10T11:51:23.618Z,9.74
2019-03-10T11:54:04.327Z,9.76
2019-03-10T11:56:57.331Z,9.79
2019-03-10T11:59:33.159Z,9.90
2019-03-10T12:02:16.275Z,9.90
2019-03-10T12:04:56.372Z,9.90
2019-03-10T12:07:52.863Z,9.91
2019-03-10T12:10:24.339Z,9.89
2019-03-10T12:12:55.619Z,9.93
2019-03-10T12:15:26.969Z,9.96
2019-03-10T12:17:58.424Z,10.04
2019-03-10T12:20:29.694Z,10.13
2019-03-10T12:23:01.015Z,10.29
2019-03-10T12:25:32.360Z,10.29
2019-03-10T12:28:03.673Z,10.27
2019-03-10T12:30:34.989Z,10.27
2019-03-10T12:33:06.725Z,10.28
2019-03-10T12:35:38.257Z,10.30
2019-03-10T12:38:09.652Z,10.39
2019-03-10T12:40:41.136Z,10.49
2019-03-10T12:43:12.830Z,10.58
2019-03-10T12:45:44.200Z,10.46
2019-03-10T12:48:15.630Z,10.84
2019-03-10T12:50:47.260Z,10.84
2019-03-10T12:53:18.559Z,11.00
2019-03-10T12:55:49.918Z,11.01
2019-03-10T12:58:21.281Z,11.11
2019-03-10T13:00:52.707Z,11.14
2019-03-10T13:03:24.087Z,11.15
2019-03-10T13:05:55.466Z,11.15
2019-03-10T13:08:27.797Z,11.22
2019-03-10T13:10:59.649Z,11.24
2019-03-10T13:13:31.274Z,11.24
2019-03-10T13:16:02.657Z,11.36
2019-03-10T13:18:34.131Z,11.35
2019-03-10T13:21:05.729Z,11.34
2019-03-10T13:23:37.305Z,11.25
2019-03-10T13:26:08.804Z,11.32
2019-03-10T13:28:40.124Z,11.28
2019-03-10T13:31:11.570Z,11.22
2019-03-10T13:33:43.107Z,11.18
2019-03-10T13:36:14.813Z,11.15
2019-03-10T13:38:46.258Z,11.24
2019-03-10T13:41:17.807Z,11.22
2019-03-10T13:43:49.263Z,11.17
2019-03-10T13:46:20.914Z,11.18
2019-03-10T13:48:52.376Z,11.16
2019-03-10T13:51:23.757Z,11.17
2019-03-10T13:53:55.248Z,11.13
2019-03-10T13:56:26.826Z,11.15
2019-03-10T13:58:58.217Z,11.10
2019-03-10T14:01:29.572Z,11.08
2019-03-10T14:04:00.885Z,11.04
2019-03-10T14:06:32.312Z,11.03
2019-03-10T14:09:04.926Z,11.04
2019-03-10T14:11:36.247Z,11.05
2019-03-10T14:14:07.618Z,11.08
2019-03-10T14:16:39.012Z,11.10
2019-03-10T14:19:10.787Z,11.09
2019-03-10T14:21:42.826Z,11.14
2019-03-10T14:24:14.642Z,11.14
2019-03-10T14:26:46.023Z,11.19
2019-03-10T14:29:17.376Z,11.26
2019-03-10T14:31:50.603Z,11.34
2019-03-10T14:34:22.087Z,11.43
2019-03-10T14:36:53.629Z,11.49
2019-03-10T14:39:25.054Z,11.68
2019-03-10T14:41:56.877Z,11.85
2019-03-10T14:44:28.549Z,11.84
2019-03-10T14:47:00.383Z,11.91
2019-03-10T14:49:31.825Z,11.91
2019-03-10T14:52:03.232Z,12.02
2019-03-10T14:54:34.756Z,12.02
2019-03-10T14:57:06.261Z,12.15
2019-03-10T14:59:37.929Z,12.29
2019-03-10T15:02:09.596Z,12.39
2019-03-10T15:04:41.009Z,12.54
2019-03-10T15:07:12.986Z,12.67
2019-03-10T15:09:44.516Z,12.17
2019-03-10T15:12:16.170Z,12.69
2019-03-10T15:14:49.229Z,12.82
2019-03-10T15:17:20.924Z,12.80
2019-03-10T15:19:52.437Z,12.86
2019-03-10T15:22:23.812Z,12.84
2019-03-10T15:24:56.990Z,13.18
2019-03-10T15:27:28.387Z,13.15
2019-03-10T15:29:59.813Z,13.15
2019-03-10T15:32:31.287Z,13.18
2019-03-10T15:35:03.016Z,13.22
2019-03-10T15:37:34.367Z,13.29
2019-03-10T15:40:05.936Z,13.44
2019-03-10T15:42:37.378Z,13.75
2019-03-10T15:45:09.787Z,13.90
2019-03-10T15:47:41.132Z,14.03
2019-03-10T15:50:15.479Z,14.13
2019-03-10T15:52:47.320Z,14.20
2019-03-10T15:55:18.819Z,14.13
2019-03-10T15:57:50.883Z,14.16
2019-03-10T16:00:22.868Z,14.13
2019-03-10T16:02:54.469Z,14.16
2019-03-10T16:05:25.962Z,14.04
2019-03-10T16:07:57.549Z,14.05
2019-03-10T16:10:29.147Z,13.97
2019-03-10T16:13:00.502Z,13.94
2019-03-10T16:15:32.160Z,13.96
2019-03-10T16:18:03.611Z,13.97
2019-03-10T16:20:35.021Z,14.02
2019-03-10T16:23:06.435Z,14.16
2019-03-10T16:25:37.826Z,14.06
2019-03-10T16:28:27.651Z,14.13
2019-03-10T16:30:59.630Z,14.19
2019-03-10T16:33:31.037Z,14.21
2019-03-10T16:36:02.498Z,14.19
2019-03-10T16:38:34.156Z,14.25
2019-03-10T16:41:05.559Z,14.26
2019-03-10T16:43:37.022Z,14.14
2019-03-10T16:46:08.388Z,14.20
2019-03-10T16:48:39.899Z,14.14
2019-03-10T16:51:11.384Z,14.18
2019-03-10T16:53:43.009Z,14.21
2019-03-10T16:56:14.405Z,14.16
2019-03-10T16:58:46.234Z,14.53
2019-03-10T17:01:17.647Z,14.50
2019-03-10T17:03:48.976Z,14.63
2019-03-10T17:06:21.842Z,14.36
2019-03-10T17:08:53.401Z,13.27
2019-03-10T17:11:25.722Z,12.64
2019-03-10T17:14:04.421Z,12.50
2019-03-10T17:16:35.795Z,12.45
2019-03-10T17:19:09.539Z,12.38
2019-03-10T17:21:42.031Z,12.21
2019-03-10T17:24:15.034Z,12.16
2019-03-10T17:26:46.480Z,12.13
2019-03-10T17:29:17.875Z,12.09
2019-03-10T17:31:49.435Z,11.93
2019-03-10T17:34:20.770Z,12.05
2019-03-10T17:36:52.435Z,12.02
2019-03-10T17:39:23.802Z,12.00
2019-03-10T17:41:55.456Z,11.99
2019-03-10T17:44:27.127Z,12.08
2019-03-10T17:46:58.738Z,12.20
2019-03-10T17:49:30.471Z,12.22
2019-03-10T17:52:02.179Z,12.19
2019-03-10T17:54:33.832Z,12.16
2019-03-10T17:57:05.186Z,12.13
2019-03-10T17:59:37.022Z,12.25
2019-03-10T18:02:09.510Z,12.25
2019-03-10T18:04:41.027Z,12.47
2019-03-10T18:07:12.610Z,12.44
2019-03-10T18:09:44.235Z,12.39
2019-03-10T18:12:16.536Z,12.51
2019-03-10T18:14:48.132Z,12.60
2019-03-10T18:17:19.555Z,12.50
2019-03-10T18:19:50.899Z,12.61
2019-03-10T18:22:23.371Z,12.65
2019-03-10T18:24:54.876Z,12.63
2019-03-10T18:27:26.229Z,12.55
2019-03-10T18:29:57.651Z,12.46
2019-03-10T18:32:29.075Z,12.43
2019-03-10T18:35:02.103Z,12.36
2019-03-10T18:37:34.111Z,12.52
2019-03-10T18:40:06.706Z,12.50
2019-03-10T18:42:38.407Z,12.55
2019-03-10T18:45:11.600Z,12.44
2019-03-10T18:47:43.065Z,12.39
2019-03-10T18:50:15.930Z,12.43
2019-03-10T18:52:50.336Z,12.43
2019-03-10T18:55:22.445Z,12.52
2019-03-10T18:57:54.378Z,12.45
2019-03-10T19:00:25.857Z,12.62
2019-03-10T19:02:57.500Z,12.74
2019-03-10T19:05:29.129Z,12.91
2019-03-10T19:08:02.327Z,12.99
2019-03-10T19:10:33.722Z,12.99
2019-03-10T19:13:05.957Z,12.95
2019-03-10T19:15:38.874Z,12.99
2019-03-10T19:18:10.239Z,13.00
2019-03-10T19:20:42.165Z,12.98
2019-03-10T19:23:13.538Z,13.00
2019-03-10T19:25:45.019Z,12.98
2019-03-10T19:28:16.574Z,12.89
2019-03-10T19:30:48.022Z,12.97
2019-03-10T19:33:19.537Z,12.95
2019-03-10T19:35:50.862Z,13.00
2019-03-10T19:38:22.383Z,13.04
2019-03-10T19:40:53.852Z,13.13
2019-03-10T19:43:25.885Z,13.02
2019-03-10T19:45:57.679Z,13.06
2019-03-10T19:48:29.049Z,13.01
2019-03-10T19:51:02.098Z,12.88
2019-03-10T19:53:33.582Z,12.94
2019-03-10T19:56:05.484Z,12.95
2019-03-10T19:58:38.553Z,12.96
2019-03-10T20:01:10.068Z,12.93
2019-03-10T20:03:41.418Z,12.93
2019-03-10T20:06:12.844Z,12.91
2019-03-10T20:08:51.653Z,12.87
2019-03-10T20:11:25.074Z,12.83
2019-03-10T20:13:56.474Z,12.87
2019-03-10T20:16:27.827Z,12.91
2019-03-10T20:18:59.246Z,12.85
2019-03-10T20:21:30.739Z,12.84
2019-03-10T20:24:02.075Z,12.76
2019-03-10T20:26:33.910Z,12.73
2019-03-10T20:29:05.544Z,12.72
2019-03-10T20:31:37.008Z,12.68
2019-03-10T20:34:08.408Z,12.70
2019-03-10T20:36:39.726Z,12.70
2019-03-10T20:39:11.004Z,12.70
2019-03-10T20:41:42.547Z,12.58
2019-03-10T20:44:14.154Z,12.64
2019-03-10T20:46:45.542Z,12.61
2019-03-10T20:49:16.913Z,12.67
2019-03-10T20:51:48.366Z,12.59
2019-03-10T20:54:20.797Z,12.56
2019-03-10T20:56:53.892Z,12.51
2019-03-10T20:59:25.187Z,12.55
2019-03-10T21:01:56.495Z,12.33
2019-03-10T21:04:28.144Z,12.33
2019-03-10T21:07:00.853Z,12.39
2019-03-10T21:09:32.494Z,12.35
2019-03-10T21:12:03.878Z,12.32
2019-03-10T21:14:36.051Z,12.31
2019-03-10T21:17:07.977Z,12.33
2019-03-10T21:19:39.757Z,12.23
2019-03-10T21:22:11.051Z,12.23
2019-03-10T21:24:42.379Z,12.21
2019-03-10T21:27:13.739Z,12.13
2019-03-10T21:29:45.187Z,12.03
2019-03-10T21:32:16.593Z,12.03
2019-03-10T21:34:47.943Z,11.90
2019-03-10T21:37:19.424Z,11.88
2019-03-10T21:39:50.702Z,11.89
2019-03-10T21:42:23.661Z,11.84
2019-03-10T21:44:54.981Z,11.78
2019-03-10T21:47:26.298Z,11.67
2019-03-10T21:49:59.479Z,11.66
2019-03-10T21:52:30.768Z,11.54
2019-03-10T21:55:02.153Z,11.61
2019-03-10T21:57:35.148Z,11.56
2019-03-10T22:00:07.883Z,11.60
2019-03-10T22:02:39.213Z,11.54
2019-03-10T22:05:12.449Z,11.54
2019-03-10T22:07:43.745Z,11.64
2019-03-10T22:10:26.383Z,11.69
2019-03-10T22:12:48.513Z,11.61
2019-03-10T22:15:19.965Z,11.63
2019-03-10T22:17:51.210Z,11.57
2019-03-10T22:20:22.477Z,11.63
2019-03-10T22:22:53.788Z,11.49
2019-03-10T22:25:25.155Z,11.32
2019-03-10T22:27:56.653Z,11.27
2019-03-10T22:30:28.022Z,11.27
2019-03-10T22:32:59.428Z,11.14
2019-03-10T22:35:30.727Z,11.07
2019-03-10T22:38:02.090Z,11.12
2019-03-10T22:40:33.347Z,11.05
2019-03-10T22:43:04.744Z,11.28
2019-03-10T22:45:36.354Z,11.28
2019-03-10T22:48:07.797Z,11.34
2019-03-10T22:50:39.050Z,11.33
2019-03-10T22:53:10.455Z,10.93
2019-03-10T22:55:41.721Z,10.37
2019-03-10T22:58:14.845Z,9.98
2019-03-10T23:00:50.540Z,9.71
2019-03-10T23:03:23.384Z,9.52
2019-03-10T23:05:54.637Z,9.32
2019-03-10T23:08:27.632Z,9.28
2019-03-10T23:10:59.003Z,9.11
2019-03-10T23:13:30.369Z,9.27
2019-03-10T23:16:01.742Z,9.29
2019-03-10T23:18:33.099Z,9.39
2019-03-10T23:21:07.471Z,9.20
2019-03-10T23:23:39.819Z,8.99
2019-03-10T23:26:11.193Z,8.96
2019-03-10T23:28:42.833Z,8.98
2019-03-10T23:31:14.160Z,8.96
2019-03-10T23:33:45.656Z,8.78
2019-03-10T23:36:16.978Z,8.75
2019-03-10T23:38:48.485Z,8.59
2019-03-10T23:41:19.760Z,8.45
2019-03-10T23:43:51.163Z,8.32
2019-03-10T23:46:22.564Z,8.32
2019-03-10T23:48:53.840Z,8.08
2019-03-10T23:51:25.639Z,8.00
2019-03-10T23:53:57.185Z,7.84
2019-03-10T23:56:30.207Z,7.83
2019-03-10T23:59:01.553Z,7.66
